Time;durP1;ratioP1;P1;durP2;ratioP2;P2;SDS_P1;SDS_P2;PMS_P1;PMS_P2;Temp;Humidity;BMP_temperature;BMP_pressure;BME280_temperature;BME280_humidity;BME280_pressure;Samples;Min_cycle;Max_cycle;Signal;HPM_P1;HPM_P2
2022/03/27 00:01:08;;;;;;;31.08;16.90;;;6.90;47.80;;;;;;5013809;28;20030;-75
2022/03/27 00:03:34;;;;;;;36.63;18.20;;;6.90;47.80;;;;;;5013508;28;20038;-74
2022/03/27 00:06:00;;;;;;;33.65;16.98;;;6.90;47.60;;;;;;5013399;28;20022;-70
2022/03/27 00:08:26;;;;;;;36.17;18.00;;;6.80;47.40;;;;;;5013648;28;20037;-71
2022/03/27 00:13:52;;;;;;;29.15;16.15;;;6.80;47.80;;;;;;4990835;28;20084;-71
2022/03/27 00:16:18;;;;;;;33.08;17.45;;;6.70;47.70;;;;;;5013625;28;20022;-73
2022/03/27 00:18:43;;;;;;;30.38;16.05;;;6.70;48.00;;;;;;5013663;28;20033;-75
2022/03/27 00:21:10;;;;;;;30.60;15.40;;;6.70;47.90;;;;;;5013386;28;20028;-72
2022/03/27 00:23:39;;;;;;;29.48;16.13;;;6.70;48.10;;;;;;5013403;28;20033;-75
2022/03/27 00:26:04;;;;;;;29.70;15.93;;;6.70;48.00;;;;;;5013540;28;20097;-72
2022/03/27 00:28:33;;;;;;;33.60;16.42;;;6.70;48.10;;;;;;5013411;28;20109;-72
2022/03/27 00:31:00;;;;;;;32.63;16.25;;;6.70;48.20;;;;;;5013271;28;20022;-74
2022/03/27 00:33:27;;;;;;;32.65;16.38;;;6.60;48.20;;;;;;5013518;28;20126;-72
2022/03/27 00:35:54;;;;;;;31.33;16.10;;;6.60;48.40;;;;;;5013210;28;20026;-75
2022/03/27 00:38:20;;;;;;;31.90;17.52;;;6.60;48.60;;;;;;5014443;28;20053;-74
2022/03/27 00:40:45;;;;;;;26.65;15.18;;;6.60;48.70;;;;;;5019724;28;20077;-73
2022/03/27 00:43:11;;;;;;;29.77;16.52;;;6.50;48.80;;;;;;5019518;28;20041;-74
2022/03/27 00:45:37;;;;;;;29.67;15.85;;;6.50;48.80;;;;;;5019756;28;20022;-75
2022/03/27 00:48:03;;;;;;;30.17;16.95;;;6.50;48.90;;;;;;5019509;28;20486;-76
2022/03/27 00:50:30;;;;;;;34.95;17.85;;;6.40;48.70;;;;;;5019557;28;20014;-73
2022/03/27 00:52:57;;;;;;;35.58;17.08;;;6.40;48.80;;;;;;5019812;28;20041;-75
2022/03/27 00:55:22;;;;;;;31.85;16.55;;;6.30;49.10;;;;;;5019650;28;20101;-75
2022/03/27 00:57:48;;;;;;;30.02;16.77;;;6.20;49.50;;;;;;5019586;28;20053;-75
2022/03/27 01:00:35;;;;;;;32.00;16.90;;;6.30;49.40;;;;;;5019331;28;20030;-75
2022/03/27 01:03:02;;;;;;;31.75;17.75;;;6.30;49.30;;;;;;5019312;28;20076;-72
2022/03/27 01:05:28;;;;;;;28.52;14.85;;;6.20;49.20;;;;;;5019250;28;20061;-73
2022/03/27 01:07:55;;;;;;;34.15;17.02;;;6.00;49.50;;;;;;5019770;28;20029;-74
2022/03/27 01:10:25;;;;;;;34.78;18.13;;;6.00;49.70;;;;;;5019468;28;20119;-72
2022/03/27 01:12:51;;;;;;;28.98;16.65;;;6.00;49.90;;;;;;5019194;28;20030;-74
2022/03/27 01:15:40;;;;;;;27.23;15.88;;;6.00;50.00;;;;;;5019740;28;20435;-74
2022/03/27 01:18:07;;;;;;;31.70;17.42;;;6.00;50.10;;;;;;5019214;28;20109;-75
2022/03/27 01:20:34;;;;;;;35.97;16.95;;;6.00;49.80;;;;;;5019385;28;20106;-74
2022/03/27 01:23:01;;;;;;;26.65;14.68;;;6.00;49.70;;;;;;5019414;28;20022;-74
2022/03/27 01:25:26;;;;;;;25.98;14.48;;;6.00;49.80;;;;;;5019360;28;20029;-75
2022/03/27 01:27:53;;;;;;;31.02;15.05;;;5.90;50.10;;;;;;5019197;28;20046;-70
2022/03/27 01:30:19;;;;;;;28.73;14.77;;;5.90;50.20;;;;;;5019545;28;20549;-71
2022/03/27 01:32:45;;;;;;;28.90;13.82;;;5.90;50.20;;;;;;5019190;28;20033;-73
2022/03/27 01:35:12;;;;;;;31.30;15.68;;;5.90;50.20;;;;;;5019338;28;20429;-69
2022/03/27 01:37:37;;;;;;;27.95;14.15;;;5.90;50.30;;;;;;5019365;28;20021;-74
2022/03/27 01:40:04;;;;;;;28.38;15.52;;;5.90;50.30;;;;;;5019221;28;20092;-73
2022/03/27 01:42:29;;;;;;;31.10;15.15;;;5.90;50.60;;;;;;5019147;28;20032;-73
2022/03/27 01:44:55;;;;;;;27.67;14.55;;;5.80;50.70;;;;;;5019151;28;20033;-74
2022/03/27 01:47:21;;;;;;;29.13;14.57;;;5.70;50.80;;;;;;5019140;28;20442;-74
2022/03/27 01:49:46;;;;;;;30.70;16.42;;;5.70;51.20;;;;;;5017802;28;20034;-74
2022/03/27 01:52:15;;;;;;;27.58;14.43;;;5.70;51.30;;;;;;5015275;28;20034;-75
2022/03/27 01:54:41;;;;;;;29.92;14.93;;;5.70;51.20;;;;;;5016029;28;20553;-74
2022/03/27 01:57:06;;;;;;;28.17;15.05;;;5.70;51.10;;;;;;5015926;28;20073;-75
2022/03/27 01:59:33;;;;;;;23.95;14.75;;;5.70;51.20;;;;;;5015803;28;20037;-75
2022/03/27 02:01:59;;;;;;;28.90;14.82;;;5.70;51.20;;;;;;5015815;28;20029;-77
2022/03/27 02:04:25;;;;;;;33.13;15.35;;;5.80;51.10;;;;;;5015821;28;20030;-78
2022/03/27 02:06:50;;;;;;;32.47;15.68;;;5.80;51.30;;;;;;5015763;28;20030;-74
2022/03/27 02:09:16;;;;;;;26.85;14.02;;;5.70;51.10;;;;;;5015885;28;20034;-74
2022/03/27 02:11:43;;;;;;;29.67;15.93;;;5.70;51.10;;;;;;5015614;28;20026;-76
2022/03/27 02:14:09;;;;;;;29.45;14.48;;;5.60;50.80;;;;;;5015745;28;20034;-75
2022/03/27 02:16:36;;;;;;;24.80;14.07;;;5.50;50.90;;;;;;5015596;28;20076;-74
2022/03/27 02:19:03;;;;;;;30.30;14.82;;;5.40;51.20;;;;;;5015503;28;20076;-73
2022/03/27 02:21:29;;;;;;;35.13;15.00;;;5.40;51.40;;;;;;5015551;28;20104;-75
2022/03/27 02:23:54;;;;;;;28.05;13.95;;;5.30;51.90;;;;;;5015475;28;20046;-73
2022/03/27 02:26:20;;;;;;;27.15;14.70;;;5.30;52.20;;;;;;4997791;28;20037;-73
2022/03/27 02:28:45;;;;;;;30.67;14.52;;;5.30;52.40;;;;;;5014976;28;20072;-74
2022/03/27 02:31:11;;;;;;;39.60;14.77;;;5.30;52.40;;;;;;5015282;28;20378;-75
2022/03/27 02:33:37;;;;;;;26.65;13.85;;;5.30;52.30;;;;;;5015209;28;20532;-71
2022/03/27 02:36:06;;;;;;;25.10;13.88;;;5.30;52.30;;;;;;5015189;28;20038;-70
2022/03/27 02:38:31;;;;;;;32.58;14.38;;;5.30;52.40;;;;;;5015165;28;20121;-69
2022/03/27 02:40:57;;;;;;;27.45;13.00;;;5.20;52.60;;;;;;5015038;28;20183;-69
2022/03/27 02:43:22;;;;;;;26.95;13.93;;;5.10;52.80;;;;;;5015021;28;20021;-68
2022/03/27 02:45:50;;;;;;;34.88;15.30;;;5.10;53.30;;;;;;5014903;28;20026;-69
2022/03/27 02:48:15;;;;;;;24.02;13.20;;;5.00;53.40;;;;;;5014989;28;20117;-69
2022/03/27 02:50:43;;;;;;;32.08;15.05;;;5.00;53.50;;;;;;5014946;28;20080;-69
2022/03/27 02:53:09;;;;;;;29.45;14.38;;;4.90;53.70;;;;;;5015080;28;20037;-71
2022/03/27 02:55:35;;;;;;;29.00;14.10;;;5.00;53.60;;;;;;5014858;28;20470;-70
2022/03/27 02:58:01;;;;;;;27.92;13.73;;;5.00;53.70;;;;;;5014915;28;20034;-69
2022/03/27 03:00:27;;;;;;;32.42;13.90;;;5.10;53.60;;;;;;5014824;28;20105;-69
2022/03/27 03:02:54;;;;;;;29.27;14.45;;;5.00;53.40;;;;;;5014408;28;20124;-69
2022/03/27 03:05:20;;;;;;;30.25;14.45;;;4.90;53.90;;;;;;5014600;28;20557;-70
2022/03/27 03:07:46;;;;;;;29.73;14.57;;;4.90;53.90;;;;;;5014638;28;20124;-70
2022/03/27 03:10:14;;;;;;;28.48;13.90;;;4.90;53.90;;;;;;5014624;28;20097;-71
2022/03/27 03:12:40;;;;;;;25.38;13.20;;;4.80;53.40;;;;;;5014408;28;20102;-75
2022/03/27 03:15:06;;;;;;;25.60;13.20;;;4.80;53.30;;;;;;5014399;28;20449;-74
2022/03/27 03:17:32;;;;;;;25.80;13.50;;;4.90;53.70;;;;;;5014810;28;20421;-75
2022/03/27 03:19:58;;;;;;;26.40;13.77;;;4.90;53.70;;;;;;5014515;28;20030;-75
2022/03/27 03:22:24;;;;;;;31.25;14.18;;;4.90;53.60;;;;;;5014373;28;20026;-75
2022/03/27 03:24:50;;;;;;;28.95;13.18;;;4.80;53.60;;;;;;5014653;28;20105;-74
2022/03/27 03:27:16;;;;;;;25.48;13.30;;;4.80;53.70;;;;;;5014290;28;20101;-75
2022/03/27 03:29:41;;;;;;;30.58;14.30;;;4.80;53.80;;;;;;5014119;28;20084;-75
2022/03/27 03:32:07;;;;;;;33.05;13.82;;;4.70;53.90;;;;;;4996583;28;20030;-70
2022/03/27 03:34:33;;;;;;;27.30;14.07;;;4.70;53.80;;;;;;5014156;28;20095;-70
2022/03/27 03:36:59;;;;;;;27.60;13.88;;;4.70;53.60;;;;;;5014086;28;20058;-71
2022/03/27 03:39:24;;;;;;;31.15;14.30;;;4.60;53.60;;;;;;5014144;28;20025;-70
2022/03/27 03:41:50;;;;;;;29.33;13.18;;;4.60;53.90;;;;;;5014086;28;20058;-71
2022/03/27 03:44:15;;;;;;;25.83;13.75;;;4.50;54.00;;;;;;5014094;28;20036;-72
2022/03/27 03:46:41;;;;;;;31.23;14.20;;;4.50;54.20;;;;;;5013952;28;20022;-69
2022/03/27 03:49:07;;;;;;;27.60;14.63;;;4.50;54.50;;;;;;5014040;28;20367;-69
2022/03/27 03:51:36;;;;;;;29.58;13.57;;;4.60;54.30;;;;;;5013951;28;20065;-69
2022/03/27 03:54:03;;;;;;;29.98;15.00;;;4.50;54.10;;;;;;5013946;28;20111;-69
2022/03/27 03:56:29;;;;;;;25.05;13.25;;;4.50;54.40;;;;;;5013831;28;20025;-69
2022/03/27 03:58:54;;;;;;;38.08;16.10;;;4.40;54.60;;;;;;5014046;28;20026;-69
2022/03/27 04:01:20;;;;;;;28.10;14.50;;;4.40;54.90;;;;;;5013740;28;20042;-70
2022/03/27 04:03:45;;;;;;;29.85;13.27;;;4.40;54.70;;;;;;5013666;28;20037;-69
2022/03/27 04:06:11;;;;;;;32.30;15.30;;;4.40;54.70;;;;;;5013766;28;20030;-70
2022/03/27 04:08:37;;;;;;;28.02;12.95;;;4.40;54.80;;;;;;5013675;28;20045;-71
2022/03/27 04:11:03;;;;;;;33.97;14.40;;;4.50;54.80;;;;;;5013550;28;20038;-71
2022/03/27 04:13:28;;;;;;;35.60;15.45;;;4.50;54.60;;;;;;5012720;28;20080;-68
2022/03/27 04:15:54;;;;;;;37.72;17.05;;;4.50;54.50;;;;;;5013549;28;20042;-68
2022/03/27 04:18:19;;;;;;;35.58;16.13;;;4.40;54.40;;;;;;5013431;28;20065;-71
2022/03/27 04:20:45;;;;;;;42.83;18.15;;;4.30;54.60;;;;;;5017053;28;20022;-71
2022/03/27 04:23:10;;;;;;;40.67;18.02;;;4.40;54.80;;;;;;5013876;28;20029;-70
2022/03/27 04:25:36;;;;;;;39.28;18.77;;;4.30;55.00;;;;;;5013096;28;20053;-70
2022/03/27 04:28:07;;;;;;;36.40;15.15;;;4.40;55.20;;;;;;5013415;28;20030;-71
2022/03/27 04:30:33;;;;;;;34.20;16.58;;;4.40;55.10;;;;;;5013400;28;20030;-69
2022/03/27 04:32:59;;;;;;;36.85;14.63;;;4.40;55.20;;;;;;5013345;28;20402;-68
2022/03/27 04:35:25;;;;;;;26.73;13.70;;;4.40;55.20;;;;;;5013287;28;20026;-69
2022/03/27 04:37:50;;;;;;;32.55;13.25;;;4.50;55.40;;;;;;5013130;28;20030;-71
2022/03/27 04:40:16;;;;;;;27.65;13.57;;;4.50;55.30;;;;;;5013176;28;20089;-70
2022/03/27 04:42:42;;;;;;;37.00;14.80;;;4.50;55.30;;;;;;5013206;28;20131;-71
2022/03/27 04:45:08;;;;;;;28.05;14.35;;;4.50;55.30;;;;;;5013040;28;20026;-69
2022/03/27 04:47:34;;;;;;;30.42;14.65;;;4.40;55.40;;;;;;5013278;28;20356;-69
2022/03/27 04:50:00;;;;;;;31.75;14.85;;;4.40;55.80;;;;;;5013063;28;20024;-68
2022/03/27 04:52:26;;;;;;;34.15;14.52;;;4.50;55.90;;;;;;5012853;28;20030;-69
2022/03/27 04:54:52;;;;;;;32.80;14.65;;;4.50;55.80;;;;;;5013119;28;20113;-69
2022/03/27 04:57:18;;;;;;;31.83;15.52;;;4.50;55.60;;;;;;5013017;28;20032;-70
2022/03/27 04:59:43;;;;;;;33.30;15.48;;;4.40;55.40;;;;;;5012926;28;20492;-68
2022/03/27 05:02:09;;;;;;;29.40;15.45;;;4.50;55.40;;;;;;5012914;28;20478;-69
2022/03/27 05:04:34;;;;;;;33.72;14.45;;;4.40;55.30;;;;;;5012918;28;20030;-69
2022/03/27 05:07:00;;;;;;;36.78;14.48;;;4.40;55.20;;;;;;5013231;28;20022;-69
2022/03/27 05:09:25;;;;;;;27.30;13.80;;;4.50;55.20;;;;;;5012939;28;20022;-69
2022/03/27 05:11:51;;;;;;;27.13;13.88;;;4.40;55.30;;;;;;5012848;28;20029;-69
2022/03/27 05:14:16;;;;;;;24.08;13.63;;;4.40;55.40;;;;;;5013052;28;20030;-70
2022/03/27 05:16:42;;;;;;;29.15;13.90;;;4.40;55.30;;;;;;4995252;28;20029;-69
2022/03/27 05:19:08;;;;;;;24.00;11.50;;;4.40;55.20;;;;;;5013014;28;20382;-69
2022/03/27 05:21:35;;;;;;;25.67;13.13;;;4.30;55.10;;;;;;5013012;28;20495;-69
2022/03/27 05:24:01;;;;;;;25.55;13.48;;;4.30;55.20;;;;;;5012991;28;20026;-71
2022/03/27 05:26:27;;;;;;;36.53;16.50;;;4.30;55.20;;;;;;5016239;28;20394;-71
2022/03/27 05:28:53;;;;;;;47.92;17.70;;;4.30;55.00;;;;;;5016442;28;20033;-71
2022/03/27 05:31:19;;;;;;;32.92;16.75;;;4.20;55.30;;;;;;5016513;28;20049;-70
2022/03/27 05:33:45;;;;;;;36.35;16.23;;;4.20;55.50;;;;;;5016454;28;20033;-70
2022/03/27 05:36:11;;;;;;;33.88;16.42;;;4.10;55.80;;;;;;5016329;28;20028;-70
2022/03/27 05:38:38;;;;;;;34.83;16.08;;;4.10;56.30;;;;;;5016667;28;20033;-70
2022/03/27 05:41:04;;;;;;;28.98;15.75;;;4.10;56.40;;;;;;5016103;28;20144;-71
2022/03/27 05:43:30;;;;;;;32.28;14.20;;;4.00;56.60;;;;;;5016165;28;20022;-73
2022/03/27 05:45:55;;;;;;;31.33;12.90;;;3.90;56.80;;;;;;5016233;28;20034;-70
2022/03/27 05:48:21;;;;;;;26.88;12.65;;;4.00;56.80;;;;;;5016006;28;20571;-70
2022/03/27 05:50:47;;;;;;;25.73;12.65;;;4.10;56.70;;;;;;5016015;28;20079;-71
2022/03/27 05:53:13;;;;;;;26.38;13.45;;;4.20;56.70;;;;;;5016081;28;20077;-72
2022/03/27 05:55:39;;;;;;;26.45;12.98;;;4.20;56.70;;;;;;5016090;28;20022;-70
2022/03/27 05:58:05;;;;;;;25.40;12.30;;;4.20;56.70;;;;;;5016019;28;20112;-70
2022/03/27 06:00:31;;;;;;;26.83;12.18;;;4.20;56.70;;;;;;5015961;28;20461;-70
2022/03/27 06:02:56;;;;;;;30.80;12.98;;;4.20;56.60;;;;;;5015875;28;20406;-70
2022/03/27 06:05:23;;;;;;;34.92;13.95;;;4.30;56.40;;;;;;5015886;28;20030;-71
2022/03/27 06:07:54;;;;;;;31.88;13.55;;;4.40;56.10;;;;;;5015774;28;20053;-72
2022/03/27 06:10:22;;;;;;;24.98;13.07;;;4.30;56.20;;;;;;5015883;28;20386;-71
2022/03/27 06:12:48;;;;;;;38.35;13.73;;;4.30;56.10;;;;;;5015260;28;20481;-71
2022/03/27 06:15:14;;;;;;;29.52;13.98;;;4.40;55.90;;;;;;5015750;28;20116;-70
2022/03/27 06:17:42;;;;;;;30.55;14.05;;;4.50;55.70;;;;;;5015780;28;20026;-70
2022/03/27 06:20:09;;;;;;;32.15;14.75;;;4.50;55.40;;;;;;5015890;28;20056;-70
2022/03/27 06:22:35;;;;;;;27.67;14.02;;;4.60;55.50;;;;;;4997986;28;20022;-70
2022/03/27 06:25:01;;;;;;;31.50;14.23;;;4.70;55.50;;;;;;5015670;28;20029;-70
2022/03/27 06:27:27;;;;;;;31.30;14.40;;;4.80;55.00;;;;;;5015823;28;20022;-71
2022/03/27 06:29:52;;;;;;;31.38;13.70;;;4.90;54.80;;;;;;4997877;28;20026;-70
2022/03/27 06:32:18;;;;;;;28.23;13.77;;;5.00;54.30;;;;;;5015298;28;20026;-70
2022/03/27 06:34:43;;;;;;;28.83;14.18;;;5.10;54.40;;;;;;5015616;28;20042;-70
2022/03/27 06:37:09;;;;;;;35.67;17.63;;;5.20;54.00;;;;;;5014653;28;20048;-74
2022/03/27 06:39:34;;;;;;;36.97;19.15;;;5.30;53.80;;;;;;4997373;28;20038;-75
2022/03/27 06:42:00;;;;;;;39.47;20.17;;;5.50;53.60;;;;;;5015138;28;20049;-75
2022/03/27 06:44:25;;;;;;;36.13;19.52;;;5.60;53.00;;;;;;5015121;28;20036;-75
2022/03/27 06:46:51;;;;;;;30.45;15.93;;;5.80;52.80;;;;;;5015107;28;20386;-73
2022/03/27 06:49:17;;;;;;;34.97;15.65;;;5.90;52.80;;;;;;5014890;28;20414;-75
2022/03/27 06:51:43;;;;;;;35.50;16.88;;;6.10;52.70;;;;;;5015058;28;20194;-74
2022/03/27 06:54:09;;;;;;;38.33;18.30;;;6.20;52.40;;;;;;4997302;28;20501;-75
2022/03/27 06:56:35;;;;;;;31.80;16.63;;;6.30;52.00;;;;;;5014722;28;20037;-76
2022/03/27 06:59:00;;;;;;;32.65;15.38;;;6.40;51.70;;;;;;5014439;28;20030;-74
2022/03/27 07:04:10;;;;;;;34.28;16.05;;;6.70;51.10;;;;;;5014950;28;20041;-73
2022/03/27 07:06:36;;;;;;;34.05;15.18;;;6.80;50.30;;;;;;5014964;28;20042;-74
2022/03/27 07:09:04;;;;;;;32.15;16.63;;;6.90;50.10;;;;;;5014753;28;20029;-73
2022/03/27 07:11:29;;;;;;;32.13;16.08;;;7.00;49.70;;;;;;5014589;28;20033;-74
2022/03/27 07:13:55;;;;;;;30.55;15.70;;;7.10;49.40;;;;;;5014666;28;20030;-76
2022/03/27 07:16:20;;;;;;;34.65;16.65;;;7.30;49.40;;;;;;5014278;28;20037;-75
2022/03/27 07:18:49;;;;;;;39.63;18.27;;;7.30;49.50;;;;;;5014352;28;20026;-74
2022/03/27 07:21:16;;;;;;;36.85;16.80;;;7.40;49.20;;;;;;5014625;28;20030;-75
2022/03/27 07:23:41;;;;;;;41.05;17.98;;;7.60;48.60;;;;;;5014506;28;20026;-76
2022/03/27 07:26:07;;;;;;;31.35;15.05;;;7.70;48.10;;;;;;5014071;28;20529;-75
2022/03/27 07:28:32;;;;;;;31.70;15.13;;;7.80;48.10;;;;;;5014407;28;20040;-73
2022/03/27 07:30:59;;;;;;;29.05;15.00;;;8.10;47.90;;;;;;5014230;28;20032;-74
2022/03/27 07:33:24;;;;;;;32.88;16.05;;;8.30;47.40;;;;;;5013934;28;20037;-74
2022/03/27 07:35:50;;;;;;;39.25;16.63;;;8.50;47.10;;;;;;5014192;28;20083;-73
2022/03/27 07:38:16;;;;;;;40.70;17.15;;;8.60;46.40;;;;;;5013997;28;20033;-76
2022/03/27 07:40:42;;;;;;;33.28;17.25;;;8.70;46.00;;;;;;4996260;28;20038;-76
2022/03/27 07:43:08;;;;;;;34.08;16.08;;;8.70;45.70;;;;;;5014128;28;20501;-76
2022/03/27 07:45:34;;;;;;;38.20;16.55;;;8.60;46.20;;;;;;5014031;28;20076;-74
2022/03/27 07:48:00;;;;;;;30.85;15.05;;;8.60;46.70;;;;;;5013114;28;20029;-74
2022/03/27 07:50:28;;;;;;;33.53;14.98;;;8.70;48.20;;;;;;4996078;28;20026;-74
2022/03/27 07:52:54;;;;;;;32.10;16.20;;;9.00;48.20;;;;;;4996121;28;20497;-75
2022/03/27 07:55:20;;;;;;;35.80;16.95;;;9.20;46.70;;;;;;5013997;28;20057;-74
2022/03/27 07:57:46;;;;;;;32.85;14.52;;;9.40;46.40;;;;;;5013769;28;20021;-76
2022/03/27 08:00:13;;;;;;;37.80;16.15;;;9.60;45.70;;;;;;5013816;28;20377;-75
2022/03/27 08:02:41;;;;;;;32.95;15.80;;;9.80;44.90;;;;;;5013613;28;20109;-75
2022/03/27 08:05:07;;;;;;;43.53;18.13;;;10.00;44.70;;;;;;5013813;28;20022;-77
2022/03/27 08:07:33;;;;;;;30.38;15.20;;;10.10;43.80;;;;;;5013451;28;20100;-72
2022/03/27 08:10:02;;;;;;;34.30;16.88;;;10.30;48.10;;;;;;5013650;28;20458;-74
2022/03/27 08:12:28;;;;;;;37.80;15.88;;;10.70;47.30;;;;;;5013422;28;20034;-74
2022/03/27 08:14:53;;;;;;;40.13;16.58;;;11.10;47.00;;;;;;5013518;28;20088;-74
2022/03/27 08:17:20;;;;;;;32.50;15.00;;;11.50;45.00;;;;;;5013339;28;20431;-74
2022/03/27 08:19:47;;;;;;;35.67;16.60;;;11.70;43.30;;;;;;5013280;28;20067;-73
2022/03/27 08:22:13;;;;;;;31.75;16.15;;;11.80;42.20;;;;;;5013355;28;20026;-72
2022/03/27 08:24:38;;;;;;;37.72;15.23;;;12.00;42.40;;;;;;5013363;28;20405;-73
2022/03/27 08:27:06;;;;;;;33.97;15.73;;;12.00;41.70;;;;;;5013429;28;20058;-74
2022/03/27 08:29:34;;;;;;;42.85;17.25;;;12.30;39.50;;;;;;4996128;28;20026;-72
2022/03/27 08:32:02;;;;;;;29.40;15.48;;;12.30;39.20;;;;;;5014119;28;20026;-72
2022/03/27 08:34:37;;;;;;;29.95;14.50;;;12.30;38.80;;;;;;5013175;28;20414;-72
2022/03/27 08:37:05;;;;;;;40.35;17.17;;;12.40;41.90;;;;;;5013289;28;20026;-71
2022/03/27 08:39:31;;;;;;;30.90;14.82;;;12.60;40.40;;;;;;5013259;28;20022;-71
2022/03/27 08:41:57;;;;;;;30.50;15.82;;;12.90;40.10;;;;;;5013064;28;20490;-72
2022/03/27 08:44:25;;;;;;;35.25;17.15;;;13.20;39.10;;;;;;5013183;28;20026;-73
2022/03/27 08:46:52;;;;;;;31.92;16.67;;;13.20;37.50;;;;;;5013166;28;20413;-73
2022/03/27 08:49:17;;;;;;;41.63;17.15;;;13.10;37.60;;;;;;5013351;28;20458;-77
2022/03/27 08:52:01;;;;;;;39.72;17.40;;;12.80;37.80;;;;;;5013258;28;20033;-76
2022/03/27 08:54:35;;;;;;;34.22;16.42;;;12.60;38.10;;;;;;4995559;28;20508;-72
2022/03/27 08:57:13;;;;;;;48.13;19.38;;;12.20;39.20;;;;;;5016603;28;20029;-72
2022/03/27 08:59:42;;;;;;;35.95;16.60;;;12.20;40.10;;;;;;5013858;28;20100;-72
2022/03/27 09:02:07;;;;;;;28.95;15.57;;;12.10;40.50;;;;;;5017020;28;20022;-73
2022/03/27 09:04:36;;;;;;;40.75;16.58;;;12.20;40.10;;;;;;5005586;28;20038;-75
2022/03/27 09:07:02;;;;;;;31.00;17.13;;;12.40;40.10;;;;;;5002948;28;20025;-77
2022/03/27 09:09:32;;;;;;;38.55;17.10;;;12.60;39.90;;;;;;5005128;28;20019;-77
2022/03/27 09:11:58;;;;;;;34.35;17.92;;;12.80;40.10;;;;;;5004711;28;20014;-76
2022/03/27 09:14:24;;;;;;;35.15;15.75;;;13.00;39.50;;;;;;5005944;28;20505;-74
2022/03/27 09:17:08;;;;;;;31.83;15.30;;;13.20;39.10;;;;;;5006077;28;20014;-72
2022/03/27 09:19:39;;;;;;;40.35;16.80;;;13.00;38.20;;;;;;5015163;28;20036;-77
2022/03/27 09:22:12;;;;;;;36.40;15.85;;;13.10;38.90;;;;;;5016358;28;20018;-75
2022/03/27 09:24:38;;;;;;;33.13;16.77;;;13.20;38.60;;;;;;5016460;28;20075;-75
2022/03/27 09:27:05;;;;;;;30.25;14.43;;;13.40;39.50;;;;;;5016278;28;20025;-74
2022/03/27 09:29:50;;;;;;;38.97;17.02;;;13.70;39.60;;;;;;5016309;28;20021;-71
2022/03/27 09:32:30;;;;;;;35.55;16.02;;;13.90;38.60;;;;;;5001893;28;20386;-71
2022/03/27 09:35:18;;;;;;;31.35;14.88;;;14.00;37.60;;;;;;5016121;28;20201;-75
2022/03/27 09:37:46;;;;;;;28.55;14.00;;;14.10;37.00;;;;;;5016284;28;20025;-74
2022/03/27 09:40:14;;;;;;;35.58;16.98;;;14.50;36.80;;;;;;5015928;28;20053;-77
2022/03/27 09:42:40;;;;;;;32.40;15.85;;;14.80;36.00;;;;;;5016235;28;20478;-76
2022/03/27 09:45:23;;;;;;;34.45;15.90;;;14.80;36.20;;;;;;5015952;28;20026;-76
2022/03/27 09:47:51;;;;;;;34.30;17.00;;;15.00;36.70;;;;;;5016196;28;20037;-78
2022/03/27 09:50:36;;;;;;;28.50;15.75;;;15.30;35.20;;;;;;5016060;28;20147;-74
2022/03/27 09:53:21;;;;;;;;;;;15.60;35.20;;;;;;5016397;28;20088;-75
2022/03/27 09:55:58;;;;;;;29.98;16.27;;;15.70;34.50;;;;;;5016088;28;20362;-74
2022/03/27 09:58:43;;;;;;;35.50;16.48;;;15.70;34.20;;;;;;5015978;28;20078;-73
2022/03/27 10:01:22;;;;;;;27.48;14.65;;;15.70;34.50;;;;;;5016019;28;20037;-76
2022/03/27 10:04:13;;;;;;;34.28;15.82;;;15.80;34.10;;;;;;5015868;28;20084;-76
2022/03/27 10:06:40;;;;;;;31.88;15.35;;;15.80;34.30;;;;;;5015842;28;20080;-77
2022/03/27 10:09:11;;;;;;;25.70;15.13;;;16.10;34.40;;;;;;5008242;28;20021;-77
2022/03/27 10:11:38;;;;;;;31.52;14.88;;;16.40;33.80;;;;;;5003973;28;20509;-78
2022/03/27 10:14:06;;;;;;;31.52;15.93;;;16.50;32.80;;;;;;5003357;28;20042;-76
2022/03/27 10:16:52;;;;;;;28.90;16.30;;;16.50;31.60;;;;;;5004860;28;20026;-73
2022/03/27 10:19:24;;;;;;;;;;;16.70;32.30;;;;;;5004039;28;20495;-76
2022/03/27 10:21:52;;;;;;;33.53;16.83;;;16.90;32.70;;;;;;5001872;28;20278;-77
2022/03/27 10:24:19;;;;;;;29.95;16.02;;;17.10;31.90;;;;;;4999840;28;20029;-76
2022/03/27 10:26:45;;;;;;;36.53;16.60;;;17.10;31.40;;;;;;4996162;28;20037;-74
2022/03/27 10:29:12;;;;;;;30.73;15.60;;;17.10;31.20;;;;;;4995749;28;20069;-77
2022/03/27 10:31:38;;;;;;;35.60;15.50;;;17.30;31.10;;;;;;4995813;28;20030;-76
2022/03/27 10:34:05;;;;;;;27.40;15.25;;;17.50;30.90;;;;;;4995853;28;20031;-74
2022/03/27 10:36:58;;;;;;;36.00;15.82;;;17.70;29.60;;;;;;4995680;28;20026;-74
2022/03/27 10:39:43;;;;;;;34.35;15.25;;;18.00;29.20;;;;;;4995643;28;20041;-76
2022/03/27 10:42:19;;;;;;;33.25;15.57;;;17.90;28.60;;;;;;5001676;28;20038;-73
2022/03/27 10:44:58;;;;;;;27.65;14.35;;;17.80;28.90;;;;;;5015118;28;20526;-74
2022/03/27 10:47:25;;;;;;;27.35;14.27;;;17.80;28.80;;;;;;5014924;28;20474;-73
2022/03/27 10:50:00;;;;;;;31.33;14.80;;;18.20;28.30;;;;;;4997516;28;20041;-76
2022/03/27 10:52:32;;;;;;;30.85;14.43;;;18.20;27.90;;;;;;4986911;28;20023;-72
2022/03/27 10:55:02;;;;;;;28.67;14.38;;;18.10;28.10;;;;;;4997060;28;20035;-74
2022/03/27 10:57:39;;;;;;;36.60;15.55;;;18.40;27.70;;;;;;4977549;28;20434;-74
2022/03/27 11:00:07;;;;;;;30.05;14.98;;;18.50;27.90;;;;;;4994945;28;20034;-69
2022/03/27 11:02:47;;;;;;;32.60;14.68;;;18.70;27.40;;;;;;4995066;28;20034;-75
2022/03/27 11:05:31;;;;;;;27.38;13.77;;;18.90;26.80;;;;;;4977441;28;20022;-72
2022/03/27 11:08:16;;;;;;;31.50;15.48;;;19.00;26.30;;;;;;4994871;28;20026;-70
2022/03/27 11:10:51;;;;;;;31.80;15.25;;;19.10;25.50;;;;;;4994854;28;20030;-73
2022/03/27 11:13:29;;;;;;;28.20;13.80;;;19.20;24.90;;;;;;4994784;28;20482;-73
2022/03/27 11:16:15;;;;;;;27.60;15.40;;;19.00;25.20;;;;;;4994660;28;20042;-74
2022/03/27 11:18:43;;;;;;;27.92;14.70;;;18.80;25.20;;;;;;4975122;28;20074;-70
2022/03/27 11:21:11;;;;;;;25.73;14.02;;;19.00;25.40;;;;;;4975152;28;20042;-75
2022/03/27 11:23:39;;;;;;;29.23;13.63;;;19.00;24.70;;;;;;4957799;28;20117;-75
2022/03/27 11:26:20;;;;;;;24.42;13.00;;;19.30;25.80;;;;;;4974668;28;20030;-75
2022/03/27 11:28:56;;;;;;;30.77;15.07;;;19.90;24.90;;;;;;4974854;28;20027;-78
2022/03/27 11:31:26;;;;;;;27.02;14.82;;;20.20;23.30;;;;;;4980630;28;20025;-81
2022/03/27 11:34:04;;;;;;;27.85;15.85;;;20.30;23.00;;;;;;4995394;28;20041;-79
2022/03/27 11:36:32;;;;;;;28.15;15.32;;;20.40;23.40;;;;;;4994488;28;20023;-75
2022/03/27 11:39:01;;;;;;;25.65;14.23;;;20.50;22.80;;;;;;4994402;28;20026;-78
2022/03/27 11:41:45;;;;;;;31.50;16.52;;;20.70;23.00;;;;;;4976361;28;20542;-72
2022/03/27 11:44:17;;;;;;;29.05;15.18;;;20.80;21.70;;;;;;4994371;28;20116;-71
2022/03/27 11:47:11;;;;;;;27.23;13.45;;;20.60;21.30;;;;;;4994173;28;20101;-73
2022/03/27 11:49:39;;;;;;;27.58;15.15;;;20.90;22.40;;;;;;4991418;28;20074;-75
2022/03/27 11:52:07;;;;;;;25.85;14.80;;;21.00;21.50;;;;;;4993967;28;20026;-74
2022/03/27 11:54:33;;;;;;;27.80;14.93;;;21.30;21.10;;;;;;4993934;28;20038;-73
2022/03/27 11:57:01;;;;;;;31.10;15.15;;;21.10;21.20;;;;;;4993984;28;20072;-72
2022/03/27 11:59:27;;;;;;;27.70;14.75;;;21.20;21.30;;;;;;4993991;28;20117;-71
2022/03/27 12:01:55;;;;;;;27.00;15.73;;;20.90;20.90;;;;;;4993876;28;20030;-72
2022/03/27 12:04:21;;;;;;;28.73;15.32;;;20.80;21.40;;;;;;4993934;28;20387;-78
2022/03/27 12:06:53;;;;;;;28.45;15.35;;;20.90;21.00;;;;;;4976481;28;20026;-77
2022/03/27 12:09:31;;;;;;;28.83;16.58;;;21.00;21.60;;;;;;4993930;28;20030;-78
2022/03/27 12:12:23;;;;;;;26.73;14.68;;;21.00;21.50;;;;;;4994079;28;20026;-70
2022/03/27 12:14:55;;;;;;;32.22;15.85;;;21.40;20.80;;;;;;4990533;28;20043;-72
2022/03/27 12:17:22;;;;;;;24.80;13.55;;;21.70;19.70;;;;;;4993636;28;20498;-70
2022/03/27 12:19:59;;;;;;;23.77;14.95;;;22.20;19.50;;;;;;4993637;28;20030;-73
2022/03/27 12:22:43;;;;;;;25.48;13.45;;;22.60;18.70;;;;;;4993613;28;20387;-77
2022/03/27 12:25:19;;;;;;;27.40;15.13;;;22.60;18.00;;;;;;4993819;28;20034;-78
2022/03/27 12:30:37;;;;;;;30.33;14.95;;;22.30;18.20;;;;;;4993648;28;20033;-77
2022/03/27 12:33:05;;;;;;;27.77;14.95;;;22.20;18.20;;;;;;4976286;28;20057;-78
2022/03/27 12:35:32;;;;;;;25.98;15.18;;;21.80;18.70;;;;;;4992985;28;20022;-79
2022/03/27 12:37:59;;;;;;;25.73;15.73;;;21.90;18.50;;;;;;4993547;28;20482;-76
2022/03/27 12:40:26;;;;;;;29.70;14.48;;;21.70;18.20;;;;;;4993024;28;20125;-77
2022/03/27 12:42:53;;;;;;;26.50;14.85;;;22.00;18.20;;;;;;4993180;28;20022;-77
2022/03/27 12:45:25;;;;;;;25.17;15.52;;;22.30;18.00;;;;;;4993547;28;20106;-78
2022/03/27 12:47:58;;;;;;;27.50;15.80;;;22.20;17.80;;;;;;4993882;28;20054;-79